Catàleg de serveis del Meteocat

Dades de l'estació automàtica els Alamús

?
?
Resum diari 20:30 TU
Dades diàries de l'estació meteorològica
Temperatura mitjana 3.7 °C
Temperatura màxima 4.8 °C 0:00 TU
Temperatura mínima 2.9 °C 6:36 TU
Humitat relativa mitjana 96%
Precipitació acumulada 0.4 mm
Ratxa màxima del vent (2 m) 13.0 km/h - 236º 3:29 TU

El tram horari està expressat en Temps Universal (TU). Cal sumar una hora en horari d'hivern i dues en horari d'estiu per passar a l'hora oficial.

els Alamús

Metadades estació meteorol´gica
Municipi Els Alamús
Comarca Segrià
Altitud 235 m
Data alta 22.06.2011
Estat actual Operativa
Dades de període
Període
TU
TM
°C
TX
°C
TN
°C
HRM
%
PPT
mm
VVM (2 m)
km/h
DVM (2 m)
graus
VVX (2 m)
km/h
00:00 - 00:30 4.5 4.8 4.2 99 0.0 6.1 247 11.5
00:30 - 01:00 4.1 4.2 4.1 99 0.0 5.0 239 9.4
01:00 - 01:30 3.9 4.0 3.8 99 0.1 5.8 241 12.6
01:30 - 02:00 3.7 3.8 3.7 99 0.0 5.0 259 11.5
02:00 - 02:30 3.6 3.7 3.6 99 0.0 4.3 263 10.1
02:30 - 03:00 3.6 3.6 3.5 99 0.1 4.3 256 11.2
03:00 - 03:30 3.5 3.5 3.4 99 0.0 6.1 251 13.0
03:30 - 04:00 3.4 3.4 3.3 99 0.0 5.8 241 12.2
04:00 - 04:30 3.3 3.3 3.3 99 0.0 4.0 255 10.4
04:30 - 05:00 3.3 3.3 3.3 99 0.1 3.2 257 9.7
05:00 - 05:30 3.3 3.3 3.2 99 0.0 2.9 262 6.5
05:30 - 06:00 3.2 3.2 3.1 99 0.0 2.5 253 7.2
06:00 - 06:30 3.0 3.1 3.0 99 0.0 2.9 258 7.9
06:30 - 07:00 2.9 3.0 2.9 98 0.0 2.5 291 7.9
07:00 - 07:30 3.0 3.0 3.0 98 0.0 1.4 298 4.7
07:30 - 08:00 3.0 3.0 3.0 98 0.0 1.8 287 6.1
08:00 - 08:30 3.0 3.1 3.0 98 0.0 0.7 269 3.6
08:30 - 09:00 3.1 3.1 3.0 98 0.0 1.8 283 5.4
09:00 - 09:30 3.1 3.1 3.0 98 0.0 1.8 289 5.0
09:30 - 10:00 3.2 3.4 3.0 97 0.0 2.5 225 9.0
10:00 - 10:30 3.5 3.7 3.4 95 0.0 3.2 226 6.8
10:30 - 11:00 3.7 3.8 3.6 94 0.1 3.2 255 7.2
11:00 - 11:30 3.6 3.6 3.5 97 0.0 4.0 254 7.6
11:30 - 12:00 3.6 3.8 3.5 97 0.0 4.7 244 9.0
12:00 - 12:30 3.7 3.8 3.6 96 0.0 4.7 250 8.6
12:30 - 13:00 3.8 4.0 3.6 95 0.0 3.6 243 7.2
13:00 - 13:30 4.1 4.2 3.9 93 0.0 5.0 232 9.7
13:30 - 14:00 4.0 4.1 4.0 93 0.0 4.3 238 8.3
14:00 - 14:30 4.1 4.3 4.1 93 0.0 2.5 257 6.8
14:30 - 15:00 4.2 4.3 4.1 93 0.0 4.0 243 9.0
15:00 - 15:30 4.2 4.2 4.1 93 0.0 3.6 235 7.2
15:30 - 16:00 4.2 4.3 4.2 93 0.0 4.0 236 7.9
16:00 - 16:30 4.2 4.3 4.0 94 0.0 3.2 220 6.8
16:30 - 17:00 4.0 4.0 4.0 95 0.0 1.4 198 5.0
17:00 - 17:30 4.0 4.0 4.0 95 0.0 2.2 175 6.1
17:30 - 18:00 4.0 4.0 3.9 94 0.0 1.8 183 4.3
18:00 - 18:30 3.9 4.0 3.8 95 0.0 2.5 163 6.1
18:30 - 19:00 3.8 3.9 3.8 94 0.0 1.1 186 3.2
19:00 - 19:30 3.8 3.8 3.8 94 0.0 0.4 179 3.2
19:30 - 20:00 3.8 3.8 3.8 94 0.0 0.7 151 3.6
20:00 - 20:30 3.8 3.8 3.8 95 0.0 0.4 150 1.8
20:30 - 21:00 3.9 3.9 3.8 94 0.0 1.4 40 4.0

Les dades en taronja només han passat un control de qualitat automàtic. Resta pendent la seva validació definitiva.